Time;durP1;ratioP1;P1;durP2;ratioP2;P2;SDS_P1;SDS_P2;PMS_P1;PMS_P2;Temp;Humidity;BMP_temperature;BMP_pressure;BME280_temperature;BME280_humidity;BME280_pressure;Samples;Min_cycle;Max_cycle;Signal;HPM_P1;HPM_P2
2022/04/04 00:00:19;;;;;;;;;;;4.20;99.90;;;;;;5036375;28;20011;-76
2022/04/04 00:02:45;;;;;;;;;;;4.20;99.90;;;;;;5036105;28;20276;-75
2022/04/04 00:05:11;;;;;;;;;;;4.20;99.90;;;;;;5036213;28;19920;-75
2022/04/04 00:07:37;;;;;;;;;;;4.20;99.90;;;;;;5053634;28;19943;-75
2022/04/04 00:10:03;;;;;;;;;;;4.30;99.90;;;;;;5036018;28;20431;-74
2022/04/04 00:12:29;;;;;;;;;;;4.30;99.90;;;;;;5036106;28;19921;-78
2022/04/04 00:14:54;;;;;;;;;;;4.30;99.90;;;;;;5053101;28;20024;-75
2022/04/04 00:17:20;;;;;;;;;;;4.30;99.90;;;;;;5036013;28;20011;-75
2022/04/04 00:19:45;;;;;;;;;;;4.40;99.90;;;;;;5036009;28;19921;-75
2022/04/04 00:22:11;;;;;;;;;;;4.30;99.90;;;;;;5036041;28;20324;-75
2022/04/04 00:24:37;;;;;;;;;;;4.30;99.90;;;;;;5053645;28;19925;-75
2022/04/04 00:27:02;;;;;;;;;;;4.30;99.90;;;;;;5053574;28;19921;-75
2022/04/04 00:29:28;;;;;;;;;;;4.30;99.90;;;;;;5019455;28;19974;-76
2022/04/04 00:31:53;;;;;;;;;;;4.40;99.90;;;;;;5035677;28;19924;-75
2022/04/04 00:34:19;;;;;;;;;;;4.30;99.90;;;;;;5036083;28;19920;-74
2022/04/04 00:36:45;;;;;;;;;;;4.30;99.90;;;;;;5035461;28;19920;-74
2022/04/04 00:39:15;;;;;;;;;;;4.40;99.90;;;;;;5032135;28;19921;-74
2022/04/04 00:41:42;;;;;;;;;;;4.40;99.90;;;;;;5033215;28;20365;-75
2022/04/04 00:44:08;;;;;;;;;;;4.40;99.90;;;;;;5031840;28;19936;-75
2022/04/04 00:46:35;;;;;;;;;;;4.50;99.90;;;;;;5004089;28;19925;-74
2022/04/04 00:49:01;;;;;;;;;;;4.50;99.90;;;;;;5032209;28;20357;-75
2022/04/04 00:51:26;;;;;;;;;;;4.50;99.90;;;;;;5015915;28;20011;-75
2022/04/04 00:53:52;;;;;;;;;;;4.60;99.90;;;;;;4999210;28;20370;-75
2022/04/04 00:56:18;;;;;;;;;;;4.60;99.90;;;;;;5032437;28;19920;-75
2022/04/04 00:58:44;;;;;;;;;;;4.60;99.90;;;;;;5032183;28;20384;-74
2022/04/04 01:01:10;;;;;;;;;;;4.60;99.90;;;;;;5033171;28;19921;-74
2022/04/04 01:03:36;;;;;;;;;;;4.70;99.90;;;;;;5015430;28;20007;-73
2022/04/04 01:06:03;;;;;;;;;;;4.70;99.90;;;;;;5031659;28;20024;-74
2022/04/04 01:08:28;;;;;;;;;;;4.70;99.90;;;;;;5032716;28;19924;-75
2022/04/04 01:10:54;;;;;;;;;;;4.80;99.90;;;;;;5032902;28;19927;-75
2022/04/04 01:13:20;;;;;;;;;;;4.70;99.90;;;;;;5015477;28;19928;-75
2022/04/04 01:15:45;;;;;;;;;;;4.70;99.90;;;;;;5032023;28;19921;-74
2022/04/04 01:18:11;;;;;;;;;;;4.70;99.90;;;;;;5033104;28;19974;-75
2022/04/04 01:20:37;;;;;;;;;;;4.80;99.90;;;;;;5031791;28;19921;-74
2022/04/04 01:23:04;;;;;;;;;;;4.80;99.90;;;;;;5032557;28;19979;-75
2022/04/04 01:25:31;;;;;;;;;;;4.90;99.90;;;;;;5014278;28;20396;-75
2022/04/04 01:27:57;;;;;;;;;;;4.90;99.90;;;;;;5030966;28;19921;-75
2022/04/04 01:30:23;;;;;;;;;;;5.00;99.90;;;;;;5031442;28;19999;-75
2022/04/04 01:32:49;;;;;;;;;;;5.10;99.90;;;;;;5015490;28;20048;-77
2022/04/04 01:35:18;;;;;;;;;;;5.10;99.90;;;;;;5033050;28;19975;-75
2022/04/04 01:37:43;;;;;;;;;;;5.20;99.90;;;;;;5031499;28;20298;-75
2022/04/04 01:40:10;;;;;;;;;;;5.20;99.90;;;;;;5015354;28;19920;-75
2022/04/04 01:42:37;;;;;;;;;;;5.20;99.90;;;;;;5015788;28;19921;-76
2022/04/04 01:45:09;;;;;;;;;;;5.30;99.90;;;;;;5031823;28;20019;-75
2022/04/04 01:47:35;;;;;;;;;;;5.30;99.90;;;;;;5015550;28;20344;-75
2022/04/04 01:50:01;;;;;;;;;;;5.40;99.90;;;;;;5032399;28;19976;-75
2022/04/04 01:52:27;;;;;;;;;;;5.40;99.90;;;;;;5031743;28;19960;-75
2022/04/04 01:54:53;;;;;;;;;;;5.40;99.90;;;;;;5032965;28;19971;-75
2022/04/04 01:57:19;;;;;;;;;;;5.50;99.90;;;;;;5018865;28;19928;-75
2022/04/04 01:59:44;;;;;;;;;;;5.40;99.90;;;;;;5036405;28;19920;-76
2022/04/04 02:02:10;;;;;;;;;;;5.50;99.90;;;;;;5035379;28;19921;-75
2022/04/04 02:04:35;;;;;;;;;;;5.50;99.90;;;;;;5035473;28;20281;-76
2022/04/04 02:07:01;;;;;;;;;;;5.50;99.90;;;;;;5018549;28;19920;-76
2022/04/04 02:09:27;;;;;;;;;;;5.50;99.90;;;;;;5036306;28;19921;-75
2022/04/04 02:11:53;;;;;;;;;;;5.60;99.90;;;;;;5035235;28;19975;-75
2022/04/04 02:14:18;;;;;;;;;;;5.60;99.90;;;;;;5033942;28;20419;-75
2022/04/04 02:16:45;;;;;;;;;;;5.60;99.90;;;;;;5018742;28;19921;-75
2022/04/04 02:19:10;;;;;;;;;;;5.60;99.90;;;;;;5035191;28;19921;-75
2022/04/04 02:21:36;;;;;;;;;;;5.60;99.90;;;;;;5034866;28;19921;-75
2022/04/04 02:24:03;;;;;;;;;;;5.60;99.90;;;;;;5034915;28;20361;-75
2022/04/04 02:26:29;;;;;;;;;;;5.60;99.90;;;;;;5035187;28;20393;-75
2022/04/04 02:28:54;;;;;;;;;;;5.60;99.90;;;;;;5035711;28;19971;-75
2022/04/04 02:31:20;;;;;;;;;;;5.70;99.90;;;;;;5034655;28;19975;-75
2022/04/04 02:33:45;;;;;;;;;;;5.70;99.90;;;;;;5018067;28;19921;-75
2022/04/04 02:36:11;;;;;;;;;;;5.60;99.90;;;;;;5033968;28;19943;-75
2022/04/04 02:38:37;;;;;;;;;;;5.70;99.90;;;;;;5031599;28;20110;-75
2022/04/04 02:41:02;;;;;;;;;;;5.70;99.90;;;;;;5017627;28;19921;-75
2022/04/04 02:43:28;;;;;;;;;;;5.70;99.90;;;;;;5017177;28;19921;-76
2022/04/04 02:45:53;;;;;;;;;;;5.70;99.90;;;;;;5033609;28;20016;-76
2022/04/04 02:48:19;;;;;;;;;;;5.80;99.90;;;;;;5033000;28;20376;-79
2022/04/04 02:50:45;;;;;;;;;;;5.80;99.90;;;;;;5034169;28;19927;-75
2022/04/04 02:53:11;;;;;;;;;;;5.90;99.90;;;;;;5034582;28;19944;-75
2022/04/04 02:58:21;;;;;;;;;;;6.10;99.90;;;;;;5034060;28;19935;-76
2022/04/04 03:00:47;;;;;;;;;;;6.10;99.90;;;;;;5035443;28;19929;-75
2022/04/04 03:03:13;;;;;;;;;;;6.00;99.90;;;;;;5033986;28;20366;-75
2022/04/04 03:05:39;;;;;;;;;;;6.00;99.90;;;;;;5033679;28;20003;-77
2022/04/04 03:08:05;;;;;;;;;;;6.00;99.90;;;;;;5016773;28;19925;-77
2022/04/04 03:10:31;;;;;;;;;;;5.90;99.90;;;;;;5017382;28;20365;-76
2022/04/04 03:13:00;;;;;;;;;;;5.80;99.90;;;;;;5033141;28;20004;-76
2022/04/04 03:15:26;;;;;;;;;;;5.80;99.90;;;;;;5034391;28;19921;-76
2022/04/04 03:17:52;;;;;;;;;;;5.80;99.90;;;;;;5017359;28;19921;-77
2022/04/04 03:20:19;;;;;;;;;;;5.80;99.90;;;;;;5033057;28;20365;-76
2022/04/04 03:22:48;;;;;;;;;;;5.80;99.90;;;;;;5034954;28;20362;-77
2022/04/04 03:25:17;;;;;;;;;;;5.80;99.90;;;;;;5033919;28;19979;-77
2022/04/04 03:27:43;;;;;;;;;;;5.70;99.90;;;;;;5033812;28;20007;-76
2022/04/04 03:30:13;;;;;;;;;;;5.70;99.90;;;;;;5016995;28;19921;-77
2022/04/04 03:32:39;;;;;;;;;;;5.70;99.90;;;;;;5033086;28;19921;-76
2022/04/04 03:35:05;;;;;;;;;;;5.60;99.90;;;;;;5033297;28;19928;-76
2022/04/04 03:37:31;;;;;;;;;;;5.60;99.90;;;;;;5016394;28;19921;-78
2022/04/04 03:39:57;;;;;;;;;;;5.50;99.90;;;;;;5017167;28;19982;-76
2022/04/04 03:42:23;;;;;;;;;;;5.60;99.90;;;;;;5016030;28;19925;-76
2022/04/04 03:44:49;;;;;;;;;;;5.60;99.90;;;;;;5013644;28;19921;-77
2022/04/04 03:47:14;;;;;;;;;;;5.60;99.90;;;;;;4998093;28;19929;-76
2022/04/04 03:49:40;;;;;;;;;;;5.60;99.90;;;;;;5016989;28;19921;-77
2022/04/04 03:52:06;;;;;;;;;;;5.60;99.90;;;;;;5034595;28;19921;-78
2022/04/04 03:54:32;;;;;;;;;;;5.50;99.90;;;;;;5033206;28;19932;-76
2022/04/04 03:56:58;;;;;;;;;;;5.50;99.90;;;;;;5032852;28;19979;-75
2022/04/04 03:59:24;;;;;;;;;;;5.50;99.90;;;;;;5013272;28;19960;-78
2022/04/04 04:01:49;;;;;;;;;;;5.50;99.90;;;;;;5014703;28;19921;-76
2022/04/04 04:04:15;;;;;;;;;;;5.50;99.90;;;;;;4999923;28;19924;-76
2022/04/04 04:06:40;;;;;;;;;;;5.50;99.90;;;;;;5033167;28;19920;-75
2022/04/04 04:09:06;;;;;;;;;;;5.40;99.90;;;;;;5016460;28;19927;-75
2022/04/04 04:11:32;;;;;;;;;;;5.30;99.90;;;;;;5032502;28;20019;-79
2022/04/04 04:13:57;;;;;;;;;;;5.40;99.90;;;;;;5032643;28;19928;-76
2022/04/04 04:16:23;;;;;;;;;;;5.40;99.90;;;;;;5016302;28;19921;-76
2022/04/04 04:18:49;;;;;;;;;;;5.30;99.90;;;;;;4999208;28;19947;-77
2022/04/04 04:21:15;;;;;;;;;;;5.30;99.90;;;;;;5015707;28;19979;-77
2022/04/04 04:23:41;;;;;;;;;;;5.30;99.90;;;;;;5032758;28;19980;-76
2022/04/04 04:26:08;;;;;;;;;;;5.30;99.90;;;;;;5032754;28;19921;-77
2022/04/04 04:28:34;;;;;;;;;;;5.30;99.90;;;;;;5032496;28;19920;-77
2022/04/04 04:31:00;;;;;;;;;;;5.30;99.90;;;;;;5032238;28;19929;-74
2022/04/04 04:33:26;;;;;;;;;;;5.30;99.90;;;;;;5032530;28;19920;-78
2022/04/04 04:35:51;;;;;;;;;;;5.30;99.90;;;;;;5016171;28;19921;-77
2022/04/04 04:38:17;;;;;;;;;;;5.30;99.90;;;;;;5032688;28;20019;-78
2022/04/04 04:40:43;;;;;;;;;;;5.20;99.90;;;;;;5012737;28;20397;-77
2022/04/04 04:43:09;;;;;;;;;;;5.20;99.90;;;;;;4982383;28;19921;-78
2022/04/04 04:45:34;;;;;;;;;;;5.20;99.90;;;;;;5032252;28;19932;-79
2022/04/04 04:48:00;;;;;;;;;;;5.10;99.90;;;;;;5031993;28;19921;-79
2022/04/04 04:50:26;;;;;;;;;;;5.20;99.90;;;;;;5032119;28;20281;-78
2022/04/04 04:52:52;;;;;;;;;;;5.10;99.90;;;;;;5015794;28;20433;-77
2022/04/04 04:55:19;;;;;;;;;;;5.10;99.90;;;;;;5032032;28;20396;-79
2022/04/04 04:57:45;;;;;;;;;;;5.10;99.90;;;;;;5015931;28;20341;-77
2022/04/04 05:00:12;;;;;;;;;;;5.00;99.90;;;;;;4996257;28;20004;-79
2022/04/04 05:02:38;;;;;;;;;;;5.00;99.90;;;;;;5012945;28;20274;-77
2022/04/04 05:05:04;;;;;;;;;;;5.00;99.90;;;;;;5024095;28;19967;-79
2022/04/04 05:07:30;;;;;;;;;;;4.90;99.90;;;;;;5015400;28;19921;-79
2022/04/04 05:09:56;;;;;;;;;;;4.90;99.90;;;;;;4996160;28;19922;-78
2022/04/04 05:12:22;;;;;;;;;;;4.90;99.90;;;;;;5009596;28;20373;-77
2022/04/04 05:14:48;;;;;;;;;;;4.90;99.90;;;;;;5029005;28;19925;-80
2022/04/04 05:17:14;;;;;;;;;;;4.80;99.90;;;;;;5002078;28;20282;-79
2022/04/04 05:19:39;;;;;;;;;;;4.80;99.90;;;;;;5025234;28;19928;-77
2022/04/04 05:22:05;;;;;;;;;;;4.70;99.90;;;;;;5015530;28;20358;-79
2022/04/04 05:24:31;;;;;;;;;;;4.60;99.90;;;;;;5013311;28;19935;-78
2022/04/04 05:26:57;;;;;;;;;;;4.60;99.90;;;;;;4991136;28;19921;-80
2022/04/04 05:29:26;;;;;;;;;;;4.50;99.90;;;;;;5014786;28;19928;-77
2022/04/04 05:31:55;;;;;;;;;;;4.50;99.90;;;;;;5036148;28;19971;-79
2022/04/04 05:34:22;;;;;;;;;;;4.50;99.90;;;;;;5035095;28;19956;-77
2022/04/04 05:36:48;;;;;;;;;;;4.50;99.90;;;;;;5008784;28;19925;-77
2022/04/04 05:39:13;;;;;;;;;;;4.60;99.90;;;;;;5027863;28;19937;-78
2022/04/04 05:41:39;;;;;;;;;;;4.50;99.90;;;;;;5028762;28;19933;-82
2022/04/04 05:44:06;;;;;;;;;;;4.60;99.90;;;;;;5034484;28;19944;-79
2022/04/04 05:46:32;;;;;;;;;;;4.60;99.90;;;;;;5019547;28;20007;-78
2022/04/04 05:48:58;;;;;;;;;;;4.60;99.90;;;;;;5036238;28;19998;-78
2022/04/04 05:51:24;;;;;;;;;;;4.70;99.90;;;;;;5019548;28;20392;-76
2022/04/04 05:53:49;;;;;;;;;;;4.70;99.90;;;;;;5018774;28;19980;-78
2022/04/04 05:56:15;;;;;;;;;;;4.70;99.90;;;;;;5018850;28;19970;-80
2022/04/04 05:58:40;;;;;;;;;;;4.70;99.90;;;;;;4999084;28;19922;-81
2022/04/04 06:01:08;;;;;;;;;;;4.80;99.90;;;;;;5035273;28;19953;-80
2022/04/04 06:03:34;;;;;;;;;;;4.80;99.90;;;;;;5038416;28;19933;-78
2022/04/04 06:06:00;;;;;;;;;;;4.80;99.90;;;;;;5017748;28;19928;-78
2022/04/04 06:08:26;;;;;;;;;;;4.90;99.90;;;;;;5002047;28;19921;-81
2022/04/04 06:10:52;;;;;;;;;;;4.90;99.90;;;;;;5018000;28;20389;-81
2022/04/04 06:13:19;;;;;;;;;;;5.00;99.90;;;;;;5018483;28;19925;-80
2022/04/04 06:15:45;;;;;;;;;;;5.10;99.90;;;;;;5034873;28;19927;-80
2022/04/04 06:18:12;;;;;;;;;;;5.20;99.90;;;;;;5017703;28;19921;-79
2022/04/04 06:20:38;;;;;;;;;;;5.20;99.90;;;;;;5018107;28;19925;-78
2022/04/04 06:23:04;;;;;;;;;;;5.20;99.90;;;;;;5018503;28;20023;-78
2022/04/04 06:25:30;;;;;;;;;;;5.30;99.90;;;;;;5034511;28;19994;-78
2022/04/04 06:27:56;;;;;;;;;;;5.30;99.90;;;;;;5034988;28;19946;-81
2022/04/04 06:30:22;;;;;;;;;;;5.30;99.90;;;;;;5033040;28;20262;-81
2022/04/04 06:32:48;;;;;;;;;;;5.30;99.90;;;;;;5033736;28;19975;-79
2022/04/04 06:35:14;;;;;;;;;;;5.40;99.90;;;;;;5034700;28;19976;-81
2022/04/04 06:37:40;;;;;;;;;;;5.40;99.90;;;;;;5029015;28;19928;-78
2022/04/04 06:40:06;;;;;;;;;;;5.40;99.90;;;;;;5003354;28;19925;-79
2022/04/04 06:42:39;;;;;;;;;;;5.50;99.90;;;;;;5026373;28;20020;-82
2022/04/04 06:45:06;;;;;;;;;;;5.40;99.90;;;;;;5034848;28;19925;-81
2022/04/04 06:47:32;;;;;;;;;;;5.50;99.90;;;;;;5033105;28;19925;-85
2022/04/04 06:49:58;;;;;;;;;;;5.50;99.90;;;;;;5017170;28;19925;-84
2022/04/04 06:52:23;;;;;;;;;;;5.50;99.90;;;;;;5033184;28;20646;-82
2022/04/04 06:54:49;;;;;;;;;;;5.50;99.90;;;;;;5016500;28;19927;-84
2022/04/04 06:57:17;;;;;;;;;;;5.50;99.90;;;;;;5033672;28;20015;-80
2022/04/04 06:59:42;;;;;;;;;;;5.50;99.90;;;;;;5033022;28;19920;-85
2022/04/04 07:02:08;;;;;;;;;;;5.40;99.90;;;;;;5016714;28;19932;-83
2022/04/04 07:04:34;;;;;;;;;;;5.60;99.90;;;;;;5016771;28;19978;-84
2022/04/04 07:07:00;;;;;;;;;;;5.60;99.90;;;;;;5017091;28;20016;-85
2022/04/04 07:09:25;;;;;;;;;;;5.60;99.90;;;;;;5016231;28;20278;-83
2022/04/04 07:11:51;;;;;;;;;;;5.60;99.90;;;;;;5032732;28;19921;-80
2022/04/04 07:14:18;;;;;;;;;;;5.70;99.90;;;;;;5032941;28;19928;-79
2022/04/04 07:16:43;;;;;;;;;;;5.70;99.90;;;;;;5032580;28;19920;-80
2022/04/04 07:19:14;;;;;;;;;;;5.80;99.90;;;;;;5032827;28;19924;-82
2022/04/04 07:21:39;;;;;;;;;;;5.80;99.90;;;;;;5030471;28;19932;-82
2022/04/04 07:24:05;;;;;;;;;;;5.80;99.90;;;;;;5014928;28;19921;-85
2022/04/04 07:26:31;;;;;;;;;;;5.90;99.90;;;;;;5015711;28;19968;-81
2022/04/04 07:28:57;;;;;;;;;;;5.90;99.90;;;;;;5016223;28;19975;-82
2022/04/04 07:31:22;;;;;;;;;;;6.00;99.90;;;;;;5032617;28;19921;-81
2022/04/04 07:33:48;;;;;;;;;;;5.90;99.90;;;;;;5015457;28;19928;-84
2022/04/04 07:36:13;;;;;;;;;;;6.00;99.90;;;;;;5033012;28;19932;-82
2022/04/04 07:38:39;;;;;;;;;;;6.00;99.90;;;;;;5032114;28;20403;-82
2022/04/04 07:41:05;;;;;;;;;;;6.00;99.90;;;;;;5032438;28;19921;-83
2022/04/04 07:43:30;;;;;;;;;;;6.00;99.90;;;;;;5016068;28;19947;-83
2022/04/04 07:45:56;;;;;;;;;;;6.00;99.90;;;;;;5016045;28;19921;-78
2022/04/04 07:48:21;;;;;;;;;;;6.00;99.90;;;;;;5015973;28;19928;-84
2022/04/04 07:50:47;;;;;;;;;;;6.10;99.90;;;;;;5016466;28;19925;-85
2022/04/04 07:53:13;;;;;;;;;;;6.10;99.90;;;;;;5015790;28;20016;-81
2022/04/04 07:55:40;;;;;;;;;;;6.10;99.90;;;;;;5032696;28;19921;-81
2022/04/04 07:58:06;;;;;;;;;;;6.10;99.90;;;;;;5001379;28;19968;-84
2022/04/04 08:00:31;;;;;;;;;;;6.10;99.90;;;;;;5016529;28;19964;-84
2022/04/04 08:02:57;;;;;;;;;;;6.20;99.90;;;;;;5027419;28;20381;-81
2022/04/04 08:05:23;;;;;;;;;;;6.10;99.90;;;;;;5031892;28;19921;-80
2022/04/04 08:07:51;;;;;;;;;;;6.20;99.90;;;;;;5000498;28;19921;-80
2022/04/04 08:10:17;;;;;;;;;;;6.20;99.90;;;;;;5021990;28;19990;-81
2022/04/04 08:12:43;;;;;;;;;;;6.10;99.90;;;;;;5023052;28;20010;-79
2022/04/04 08:15:10;;;;;;;;;;;6.30;99.90;;;;;;5015969;28;20258;-82
2022/04/04 08:17:36;;;;;;;;;;;6.30;99.90;;;;;;5005283;28;19928;-80
2022/04/04 08:20:02;;;;;;;;;;;6.20;99.90;;;;;;5016753;28;19921;-85
2022/04/04 08:22:28;;;;;;;;;;;6.30;99.90;;;;;;5005478;28;20030;-83
2022/04/04 08:24:54;;;;;;;;;;;6.30;99.90;;;;;;5003913;28;19960;-84
2022/04/04 08:27:19;;;;;;;;;;;6.30;99.90;;;;;;5001767;28;20030;-83
2022/04/04 08:29:45;;;;;;;;;;;6.30;99.90;;;;;;4987176;28;19928;-82
2022/04/04 08:32:11;;;;;;;;;;;6.30;99.90;;;;;;5020854;28;19921;-83
2022/04/04 08:34:36;;;;;;;;;;;6.40;99.90;;;;;;4996033;28;19925;-84
2022/04/04 08:37:02;;;;;;;;;;;6.40;99.90;;;;;;5027268;28;19979;-84
2022/04/04 08:39:28;;;;;;;;;;;6.40;99.90;;;;;;5010106;28;19952;-87
2022/04/04 08:41:55;;;;;;;;;;;6.40;99.90;;;;;;4996173;28;20365;-83
2022/04/04 08:44:21;;;;;;;;;;;6.40;99.90;;;;;;5010367;28;19921;-84
2022/04/04 08:46:46;;;;;;;;;;;6.40;99.90;;;;;;5020878;28;19921;-83
2022/04/04 08:49:12;;;;;;;;;;;6.40;99.90;;;;;;5013318;28;20383;-80
2022/04/04 08:51:38;;;;;;;;;;;6.50;99.90;;;;;;5031613;28;19994;-84
2022/04/04 08:54:03;;;;;;;;;;;6.50;99.90;;;;;;5014638;28;19921;-80
2022/04/04 08:56:29;;;;;;;;;;;6.50;99.90;;;;;;5031775;28;19932;-81
2022/04/04 08:58:55;;;;;;;;;;;6.50;99.90;;;;;;5031374;28;20366;-83
2022/04/04 09:01:22;;;;;;;;;;;6.60;99.90;;;;;;5031487;28;20350;-85
2022/04/04 09:04:00;;;;;;;;;;;6.50;99.90;;;;;;4999043;28;19932;-82
2022/04/04 09:06:29;;;;;;;;;;;6.60;99.90;;;;;;5035361;28;19925;-83
2022/04/04 09:08:56;;;;;;;;;;;6.60;99.90;;;;;;5034309;28;20346;-84
2022/04/04 09:11:22;;;;;;;;;;;6.60;99.90;;;;;;5018554;28;20281;-88
2022/04/04 09:14:06;;;;;;;;;;;6.70;99.90;;;;;;5018460;28;19990;-85
2022/04/04 09:16:31;;;;;;;;;;;6.70;99.90;;;;;;5018355;28;19983;-83
2022/04/04 09:18:57;;;;;;;;;;;6.70;99.90;;;;;;5017382;28;20381;-84
2022/04/04 09:21:22;;;;;;;;;;;6.70;99.90;;;;;;5035032;28;20020;-88
2022/04/04 09:23:48;;;;;;;;;;;6.80;99.90;;;;;;5017553;28;20047;-83
2022/04/04 09:26:29;;;;;;;;;;;6.90;99.90;;;;;;5034837;28;19979;-84
2022/04/04 09:28:55;;;;;;;;;;;6.90;99.90;;;;;;5026732;28;19922;-83
2022/04/04 09:31:21;;;;;;;;;;;6.90;99.90;;;;;;5011012;28;20016;-84
2022/04/04 09:33:47;;;;;;;;;;;7.00;99.90;;;;;;5003829;28;20008;-83
2022/04/04 09:36:12;;;;;;;;;;;7.00;99.90;;;;;;4982158;28;19922;-80
2022/04/04 09:38:42;;;;;;;;;;;7.00;99.90;;;;;;5017074;28;19924;-81
2022/04/04 09:41:13;;;;;;;;;;;7.00;99.90;;;;;;5009907;28;19925;-83
2022/04/04 09:43:51;;;;;;;;;;;7.00;99.90;;;;;;5021861;28;19925;-83
2022/04/04 09:46:17;;;;;;;;;;;7.00;99.90;;;;;;5018346;28;19976;-82
2022/04/04 09:48:59;;;;;;;;;;;7.00;99.90;;;;;;5017030;28;19975;-79
2022/04/04 09:51:39;;;;;;;;;;;7.10;99.90;;;;;;5018874;28;19921;-82
2022/04/04 09:54:06;;;;;;;;;;;7.10;99.90;;;;;;4998673;28;19925;-85
2022/04/04 09:56:32;;;;;;;;;;;7.10;99.90;;;;;;5015388;28;19925;-83
2022/04/04 09:59:01;;;;;;;;;;;7.10;99.90;;;;;;4999175;28;19980;-84
2022/04/04 10:01:27;;;;;;;;;;;7.10;99.90;;;;;;5020457;28;19971;-82
2022/04/04 10:03:55;;;;;;;;;;;7.20;99.90;;;;;;5013417;28;19971;-81
2022/04/04 10:06:21;;;;;;;;;;;7.10;99.90;;;;;;5022809;28;19960;-82
2022/04/04 10:08:51;;;;;;;;;;;7.20;99.90;;;;;;5003132;28;19929;-80
2022/04/04 10:11:17;;;;;;;;;;;7.10;99.90;;;;;;5018613;28;20270;-78
2022/04/04 10:13:44;;;;;;;;;;;7.20;99.90;;;;;;5002516;28;19927;-82
2022/04/04 10:16:10;;;;;;;;;;;7.20;99.90;;;;;;5014932;28;19925;-84
2022/04/04 10:18:37;;;;;;;;;;;7.20;99.90;;;;;;5009761;28;20012;-85
2022/04/04 10:21:02;;;;;;;;;;;7.20;99.90;;;;;;5032821;28;19920;-80
2022/04/04 10:23:29;;;;;;;;;;;7.20;99.90;;;;;;5027974;28;19932;-80
2022/04/04 10:25:57;;;;;;;;;;;7.30;99.90;;;;;;5030294;28;20290;-81
2022/04/04 10:28:27;;;;;;;;;;;7.30;99.90;;;;;;5026691;28;19921;-81
2022/04/04 10:30:56;;;;;;;;;;;7.30;99.90;;;;;;5005047;28;19921;-82
2022/04/04 10:33:25;;;;;;;;;;;7.30;99.90;;;;;;5032680;28;19921;-85
2022/04/04 10:36:04;;;;;;;;;;;7.40;99.90;;;;;;5033083;28;19921;-82
2022/04/04 10:38:31;;;;;;;;;;;7.40;99.90;;;;;;5011752;28;19928;-80
2022/04/04 10:41:00;;;;;;;;;;;7.40;99.90;;;;;;5007785;28;19960;-81
2022/04/04 10:43:30;;;;;;;;;;;7.40;99.90;;;;;;5032253;28;19921;-83
2022/04/04 10:45:57;;;;;;;;;;;7.50;99.90;;;;;;5003209;28;19925;-84
2022/04/04 10:48:27;;;;;;;;;;;7.50;99.90;;;;;;5028124;28;20000;-85
2022/04/04 10:50:53;;;;;;;;;;;7.50;99.90;;;;;;5031894;28;19928;-84
2022/04/04 10:53:34;;;;;;;;;;;7.60;99.90;;;;;;5029975;28;19925;-83
2022/04/04 10:55:59;;;;;;;;;;;7.60;99.90;;;;;;5023676;28;19932;-84
2022/04/04 10:58:25;;;;;;;;;;;7.70;99.90;;;;;;5012851;28;19922;-82
2022/04/04 11:00:57;;;;;;;;;;;7.60;99.90;;;;;;5031019;28;19971;-82
2022/04/04 11:03:27;;;;;;;;;;;7.70;99.90;;;;;;5013361;28;19952;-83
2022/04/04 11:08:44;;;;;;;;;;;7.70;99.90;;;;;;5025718;28;19925;-80
2022/04/04 11:11:19;;;;;;;;;;;7.70;99.90;;;;;;5001546;28;19929;-81
2022/04/04 11:13:54;;;;;;;;;;;7.70;99.90;;;;;;5010556;28;19971;-82
2022/04/04 11:16:19;;;;;;;;;;;7.70;99.90;;;;;;5012068;28;19992;-82
2022/04/04 11:18:52;;;;;;;;;;;7.70;99.90;;;;;;4993285;28;19925;-83
2022/04/04 11:21:37;;;;;;;;;;;7.80;99.90;;;;;;5029194;28;20336;-82
2022/04/04 11:24:06;;;;;;;;;;;7.80;99.90;;;;;;5023761;28;19929;-83
2022/04/04 11:26:32;;;;;;;;;;;7.90;99.90;;;;;;5011422;28;19925;-83
2022/04/04 11:28:58;;;;;;;;;;;7.80;99.90;;;;;;5013073;28;20020;-84
2022/04/04 11:31:24;;;;;;;;;;;7.90;99.90;;;;;;5020716;28;19929;-84
2022/04/04 11:33:54;;;;;;;;;;;7.90;99.90;;;;;;4987200;28;19921;-82
2022/04/04 11:36:34;;;;;;;;;;;7.90;99.90;;;;;;5011148;28;19921;-83
2022/04/04 11:39:03;;;;;;;;;;;7.90;99.90;;;;;;5031857;28;20020;-83
2022/04/04 11:41:36;;;;;;;;;;;7.90;99.90;;;;;;5031735;28;19924;-84
2022/04/04 11:44:02;;;;;;;;;;;7.90;99.90;;;;;;5003771;28;19925;-83
2022/04/04 11:46:28;;;;;;;;;;;7.90;99.90;;;;;;5032097;28;19970;-83
2022/04/04 11:48:54;;;;;;;;;;;7.90;99.90;;;;;;4991293;28;19925;-86
2022/04/04 11:51:30;;;;;;;;;;;8.00;99.90;;;;;;5020046;28;19922;-84
2022/04/04 11:54:03;;;;;;;;;;;8.00;99.90;;;;;;5011796;28;19925;-82
2022/04/04 11:56:29;;;;;;;;;;;8.00;99.90;;;;;;5005882;28;19922;-82
2022/04/04 11:58:55;;;;;;;;;;;8.10;99.90;;;;;;5028430;28;19932;-84
2022/04/04 12:01:27;;;;;;;;;;;8.10;99.90;;;;;;5012609;28;19925;-84
2022/04/04 12:03:53;;;;;;;;;;;8.20;99.90;;;;;;5025712;28;19921;-82
2022/04/04 12:06:20;;;;;;;;;;;8.20;99.90;;;;;;5031479;28;19967;-82
2022/04/04 12:08:46;;;;;;;;;;;8.20;99.90;;;;;;5032332;28;20432;-82
2022/04/04 12:11:12;;;;;;;;;;;8.30;99.90;;;;;;5013920;28;20004;-81
2022/04/04 12:13:49;;;;;;;;;;;8.20;99.90;;;;;;5025408;28;20204;-80
2022/04/04 12:16:16;;;;;;;;;;;8.30;99.90;;;;;;5007701;28;19921;-79
2022/04/04 12:18:42;;;;;;;;;;;8.30;99.90;;;;;;5001838;28;19921;-82
2022/04/04 12:21:08;;;;;;;;;;;8.30;99.90;;;;;;5012468;28;20396;-82
2022/04/04 12:26:25;;;;;;;;;;;8.30;99.90;;;;;;5021041;28;20010;-82
2022/04/04 12:28:52;;;;;;;;;;;8.40;99.90;;;;;;5010303;28;19967;-81
2022/04/04 12:31:19;;;;;;;;;;;8.40;99.90;;;;;;5011498;28;19932;-81
2022/04/04 12:33:45;;;;;;;;;;;8.40;99.90;;;;;;5012547;28;19927;-84
2022/04/04 12:36:12;;;;;;;;;;;8.40;99.90;;;;;;5001572;28;19928;-82
2022/04/04 12:38:38;;;;;;;;;;;8.40;99.90;;;;;;4981404;28;19921;-81
2022/04/04 12:41:07;;;;;;;;;;;8.40;99.90;;;;;;5012233;28;20381;-82
2022/04/04 12:43:33;;;;;;;;;;;8.40;99.90;;;;;;5012605;28;19921;-86
2022/04/04 12:45:59;;;;;;;;;;;8.50;99.90;;;;;;4984201;28;19925;-82
2022/04/04 12:48:32;;;;;;;;;;;8.50;99.90;;;;;;4985924;28;19944;-82
2022/04/04 12:50:57;;;;;;;;;;;8.50;99.90;;;;;;5030018;28;19925;-82
2022/04/04 12:53:23;;;;;;;;;;;8.50;99.90;;;;;;5015554;28;19921;-82
2022/04/04 12:56:03;;;;;;;;;;;8.50;99.90;;;;;;5005955;28;19926;-82
2022/04/04 12:58:28;;;;;;;;;;;8.50;99.90;;;;;;5012293;28;20439;-81
2022/04/04 13:00:55;;;;;;;;;;;8.40;99.90;;;;;;4996159;28;19925;-84
2022/04/04 13:03:22;;;;;;;;;;;8.50;99.90;;;;;;5020330;28;19928;-83
2022/04/04 13:05:52;;;;;;;;;;;8.60;99.90;;;;;;5032057;28;19948;-81
2022/04/04 13:08:18;;;;;;;;;;;8.60;99.90;;;;;;5015484;28;19975;-80
2022/04/04 13:10:59;;;;;;;;;;;8.60;99.90;;;;;;5031735;28;19990;-79
2022/04/04 13:13:25;;;;;;;;;;;8.50;99.90;;;;;;5015119;28;19967;-81
2022/04/04 13:15:50;;;;;;;;;;;8.60;99.90;;;;;;5032140;28;19967;-82
2022/04/04 13:18:16;;;;;;;;;;;8.60;99.90;;;;;;4999280;28;19925;-82
2022/04/04 13:20:42;;;;;;;;;;;8.60;99.90;;;;;;5015147;28;19928;-79
2022/04/04 13:23:08;;;;;;;;;;;8.60;99.90;;;;;;5015472;28;19925;-80
2022/04/04 13:25:34;;;;;;;;;;;8.60;99.90;;;;;;5015666;28;19921;-80
2022/04/04 13:27:59;;;;;;;;;;;8.70;99.90;;;;;;5031969;28;19927;-80
2022/04/04 13:30:25;;;;;;;;;;;8.70;99.90;;;;;;5024054;28;19928;-81
2022/04/04 13:32:50;;;;;;;;;;;8.70;99.90;;;;;;4987613;28;19987;-80
2022/04/04 13:35:16;;;;;;;;;;;8.70;99.90;;;;;;5030740;28;19967;-79
2022/04/04 13:37:42;;;;;;;;;;;8.80;99.90;;;;;;5003393;28;20008;-79
2022/04/04 13:40:08;;;;;;;;;;;8.90;99.90;;;;;;4979262;28;20417;-82
2022/04/04 13:42:33;;;;;;;;;;;8.90;99.90;;;;;;5029807;28;20339;-79
2022/04/04 13:44:59;;;;;;;;;;;8.90;99.90;;;;;;5012214;28;19968;-86
2022/04/04 13:47:25;;;;;;;;;;;8.90;99.90;;;;;;4995807;28;20354;-81
2022/04/04 13:49:50;;;;;;;;;;;8.90;99.90;;;;;;4997458;28;20012;-81
2022/04/04 13:52:16;;;;;;;;;;;8.90;99.90;;;;;;5013160;28;19929;-82
2022/04/04 13:54:42;;;;;;;;;;;8.90;99.90;;;;;;5018224;28;19921;-82
2022/04/04 13:57:08;;;;;;;;;;;9.00;99.90;;;;;;5013852;28;19924;-83
2022/04/04 13:59:34;;;;;;;;;;;9.00;99.90;;;;;;5009366;28;19928;-83
2022/04/04 14:02:00;;;;;;;;;;;8.90;99.90;;;;;;5029145;28;19922;-83
2022/04/04 14:04:26;;;;;;;;;;;9.00;99.90;;;;;;5032126;28;19921;-81
2022/04/04 14:06:52;;;;;;;;;;;9.10;99.90;;;;;;5002559;28;19970;-82
2022/04/04 14:09:18;;;;;;;;;;;9.20;99.90;;;;;;5022559;28;20011;-82
2022/04/04 14:11:43;;;;;;;;;;;9.20;99.90;;;;;;4998600;28;20418;-84
2022/04/04 14:14:12;;;;;;;;;;;9.40;99.90;;;;;;5028270;28;19928;-83
2022/04/04 14:16:39;;;;;;;;;;;9.40;99.90;;;;;;5030075;28;19925;-84
2022/04/04 14:19:05;;;;;;;;;;;9.50;99.90;;;;;;5008670;28;20015;-83
2022/04/04 14:21:30;;;;;;;;;;;9.60;99.90;;;;;;5009803;28;20008;-82
2022/04/04 14:23:56;;;;;;;;;;;9.50;99.90;;;;;;5029460;28;20491;-80
2022/04/04 14:26:22;;;;;;;;;;;9.60;99.90;;;;;;5030536;28;19928;-83
2022/04/04 14:28:47;;;;;;;;;;;9.60;99.90;;;;;;5017556;28;20366;-81
2022/04/04 14:31:13;;;;;;;;;;;9.60;99.90;;;;;;5017600;28;19921;-82
2022/04/04 14:33:39;;;;;;;;;;;9.60;99.90;;;;;;5007052;28;19921;-82
2022/04/04 14:36:04;;;;;;;;;;;9.60;99.90;;;;;;5018132;28;19952;-86